Bury, United Kingdom
Current Conditions -  °F | °C
As of 2:20 PM on Tuesday 21 Oct 2014 (Local Time) from EGCC Reporting Station
Rain Showers Rain Showers  
Wind Chill: 50°   Ceiling: 3600
Heat Index: 50°   Visibility: 6mi
Dew Point: 39°   Wind: 29mph
Humidity: 66%   Direction: 310°NW
Pressure: 29.68"   Gusts: 47mph
Location:  53.59°N, 2.3°W
Report Text: EGCC 211320Z 31025G41KT 280V340 9999 5000N SHRA FEW021CB BKN036 10/04 Q1005 RESHRA
Loading
Personal Weather Stations






























Interactive Weather Map New forecast layout! Learn more

10-Day Weather Forecast

Advertisements
Track Severe Weather on mobile